Central Sonoma County Latest

37 Stations

15 Minute Data | America/Los_Angeles
as of 9/1/26 1:39 PM PDT
Station Date Time Temp (°F) RH (%) Dew Pt (°F) Wind Spd (mph) Wind Dir (°) Wind Gust (mph) Latest Rain (In) Daily Rain (In) Daily Max Temp (°F) Daily Min Temp (°F)
Windsor-NW (Ranch 8) 9/1/26 1330 73.3   4.4 49   13 53.1   2.4 0.0   0.0 NW | 317 0.0   0.0 0.00 0.01 73.6   2.5 52.2   0.6
Windsor-East (Ranch 16) 9/1/26 1330 70.7   3.3 47   12 49.3   2.9 6.3   0.7 S | 182 11.2   1.1 0.00 0.00 73.2   5.5 50.9   3.1
Mark West-North (Ranch 14) 9/1/26 1330 72.0   3.2 44   11 49.0   2.8 2.0   0.1 SW | 218 5.9   1.7 0.00 0.00 74.1   4.0 52.0   2.0
Windsor-SE (Silk Rd) 9/1/26 1330 71.2   3.0 47   11 50.1   3.1 5.0   1.5 SW | 220 9.7   1.2 0.00 0.00 72.3   3.8 47.1   2.8
Fulton-NW (Ranch 5) 9/1/26 1330 70.6   3.3 50   11 51.0   2.4 3.1   1.4 SSW | 205 8.2   1.8 0.00 0.00 72.2   4.0 49.0   0.4
Bisordi (Fulton) 9/1/26 1330 71.2   4.0 56   12 54.9   1.5 4.4   0.8 SW | 224 10.3   1.2 0.00 0.00 71.2   2.8 48.6   1.6
Windsor-South (Laughlin Rd) 9/1/26 1330 71.8   2.2 47   9 50.4   2.7 - - - 0.00 0.00 73.0   2.8 51.5   0.6
Fulton-SE (Barnes Rd) 9/1/26 1330 69.6   1.4 53   6 51.7   1.4 4.9   1.4 SSW | 199 10.7   1.8 0.00 0.00 70.9   2.3 50.9   2.3
Fulton-SW (Ranch 21) 9/1/26 1330 70.8   2.8 50   9 51.2   1.9 6.9   2.3 SW | 219 14.8   6.1 0.00 0.00 73.6   5.0 50.3   2.6
NW Santa Rosa (Piner Road) 9/1/26 1330 71.1   4.1 58   11 55.6   0.8 6.8   2.5 SW | 224 13.6   4.8 0.00 0.00 72.3   5.0 47.3   0.7
River Rd South (Denner Ranch) 9/1/26 1330 72.0   3.6 48   12 51.1   2.6 9.9   2.4 SW | 219 18.0   3.9 - - 72.9   3.2 48.3   0.9
West Santa Rosa (LOV Vineyard) 8/26/26 0900 53.3   5.2 97   6 52.4   3.5 1.0   0.1 SW | 224 3.6   0.0 0.00 0.00 53.6   5.2 50.2   1.8
Guerneville Rd (Prokopakis) 9/1/26 1330 73.8   0.9 48   3 52.7   1.0 - - - 0.00 0.00 79.5   5.9 48.3   0.5
SunnyView Vineyard (SCWC) 9/1/26 1330 70.8   2.8 50   7 51.4   0.9 6.9   4.2 SSW | 210 12.5   5.1 0.00 0.00 72.8   3.3 45.4   0.0
Guerneville Rd West (Balletto) 9/1/26 1330 71.6   3.2 56   7 55.1   0.1 7.5   3.5 SSW | 209 15.3   6.6 0.00 0.00 72.7   3.3 48.2   0.2
Sanchietti Ranch 9/1/26 1330 71.5   0.7 58   8 55.8   3.0 6.6   2.0 WSW | 252 12.6   1.7 0.00 0.00 74.7   3.9 49.1   1.6
Occidental Rd (Sebastopol) 9/1/26 1330 69.5   1.8 66   2 57.7   2.5 7.1   2.9 SW | 227 16.4   2.4 0.00 0.00 75.4   2.6 49.8   3.6
Harper's Rest (Windsor-West) 9/1/26 1330 73.8   4.3 41   13 48.7   3.6 3.9   0.7 WSW | 245 12.0   4.3 0.00 0.00 75.0   4.5 48.3   0.2
Lower Westside Rd (Ranch 12) 9/1/26 1330 73.3   3.3 44   12 49.8   3.8 5.6   1.8 WSW | 253 14.8   5.5 0.00 0.00 74.1   3.5 47.7   1.5
Guerneville (Laughlin Rd) 9/1/26 1330 70.7   2.0 48   2 50.1   2.8 6.3   0.4 S | 187 14.7   2.0 0.00 0.01 74.0   0.2 46.5   1.4
Korbel (Winery) 9/1/26 1330 73.4   0.3 45   6 50.6   3.9 5.6   3.6 S | 172 16.6   9.6 0.00 0.00 73.4   0.3 48.7   1.2
Forestville (Shone Farms) 9/1/26 1330 70.3   1.0 49   10 50.3   4.1 4.0   0.9 SSW | 201 10.4   2.0 0.00 0.00 73.2   2.6 51.5   2.5
Forestville-NE (Ranch 30) 9/1/26 1330 71.3   0.6 51   8 52.1   3.5 6.7   1.4 SSW | 201 13.7   3.1 0.00 0.00 73.7   1.6 49.4   0.0
Foggy Bend (Ranch 41) 9/1/26 1330 72.8   2.7 52   11 54.4   2.5 5.7   2.7 WSW | 258 12.3   5.1 0.00 0.00 73.6   2.1 50.6   0.7
Last Stop 9/1/26 1330 72.3   1.9 48   4 51.4   4.1 4.2   1.1 SW | 228 9.1   0.8 0.00 0.00 72.7   1.5 47.4   0.5
Green Valley Vineyard 9/1/26 1330 69.5   0.8 50   5 50.0   3.5 4.7   1.2 SW | 230 11.0   2.0 0.00 0.00 72.6   1.6 48.8   1.6
Park Royal 9/1/26 1330 70.4   1.2 51   4 51.2   0.9 - - - 0.00 0.00 72.0   2.4 49.2   1.2
Merino 9/1/26 1330 72.4   1.1 54   5 54.7   1.4 3.7   0.2 SW | 233 10.1   1.4 0.00 0.00 76.2   4.2 47.0   2.0
Green Valley (Sanchietti) 9/1/26 1330 70.7   1.8 - - - - - - - 75.2   1.6 43.7   0.9
Keefer Ranch (Green Valley) 9/1/26 1330 70.2   0.7 50   8 51.0   4.8 - - - 0.00 0.00 72.1   0.2 46.0   0.2
Graton-West (Dutton Ranch) 9/1/26 1330 70.1   2.3 56   2 53.5   3.2 3.6   0.1 SW | 234 10.4   1.5 0.00 0.00 73.6   0.0 46.5   1.0
Graton-South (Mill Station Rd) 9/1/26 1330 69.1   0.7 57   2 53.4   0.3 3.1   0.5 SSW | 196 6.8   0.0 0.00 0.00 70.9   1.5 51.1   7.0
Occidental (Horseshoe Bend) 9/1/26 1330 68.1   0.6 58   1 53.0   0.8 - - - 0.00 0.00 69.3   0.4 50.1   1.4
Sexton Valley (Jacqueline's Blk) 9/1/26 1330 67.6   3.1 66   4 55.6   1.0 2.8   0.7 SW | 223 7.9   1.1 0.00 0.00 73.2   2.0 52.1   7.5
Sebastopol Hills (Burnside Rd) 9/1/26 1330 65.4   1.2 67   0 54.0   1.2 5.5   1.4 SSW | 209 10.0   2.9 0.00 0.00 68.5   1.0 54.2   3.9
Pleasant Hill 9/1/26 1330 72.4   0.7 50   5 52.6   1.7 5.8   0.9 WSW | 246 12.4   2.3 0.00 0.00 73.1   1.3 53.7   7.1
Seaview/Fort Ross (Hirsch) 9/1/26 1330 61.4   0.6 73   2 52.6   0.2 3.8   0.8 W | 260 8.4   1.1 0.00 0.00 62.5   1.8 53.0   4.5
Max     73.8 73 57.7 9.9 - 18.0 0.00 0.01 79.5 54.2
Avg     70.7 52 52.3 5.1 - 11.3 0.00 - - -
Min     61.4 41 48.7 0.0 - 0.0 0.00 0.00 62.5 43.7